Time;durP1;ratioP1;P1;durP2;ratioP2;P2;SDS_P1;SDS_P2;PMS_P1;PMS_P2;Temp;Humidity;BMP_temperature;BMP_pressure;BME280_temperature;BME280_humidity;BME280_pressure;Samples;Min_cycle;Max_cycle;Signal;HPM_P1;HPM_P2
2023/11/03 00:01:53;;;;;;;42.58;6.65;;;12.10;97.80;;;;;;5052153;28;20029;-54
2023/11/03 00:04:18;;;;;;;33.00;6.28;;;12.00;97.80;;;;;;5068465;28;20031;-54
2023/11/03 00:06:44;;;;;;;30.48;5.85;;;12.00;97.80;;;;;;5067296;28;20032;-53
2023/11/03 00:09:11;;;;;;;33.47;6.40;;;12.00;97.80;;;;;;5068506;28;20034;-54
2023/11/03 00:11:36;;;;;;;21.85;5.57;;;12.00;97.80;;;;;;5068648;28;20058;-54
2023/11/03 00:14:04;;;;;;;34.20;6.55;;;12.00;97.90;;;;;;5068318;28;20025;-54
2023/11/03 00:16:30;;;;;;;29.17;6.63;;;12.00;97.80;;;;;;5058367;28;20039;-54
2023/11/03 00:19:00;;;;;;;30.15;6.20;;;12.00;97.80;;;;;;5048428;28;20021;-54
2023/11/03 00:21:30;;;;;;;19.05;4.47;;;11.90;97.80;;;;;;5066105;28;20116;-54
2023/11/03 00:23:55;;;;;;;26.23;5.38;;;11.90;97.80;;;;;;5048360;28;20033;-54
2023/11/03 00:26:21;;;;;;;24.10;5.38;;;11.90;97.80;;;;;;5066636;28;20063;-54
2023/11/03 00:28:49;;;;;;;28.05;5.70;;;11.90;97.80;;;;;;5031527;28;20029;-54
2023/11/03 00:31:15;;;;;;;27.08;5.95;;;11.90;97.80;;;;;;5048686;28;20029;-54
2023/11/03 00:33:41;;;;;;;27.75;4.28;;;11.90;97.70;;;;;;5048924;28;20043;-54
2023/11/03 00:36:07;;;;;;;23.15;4.80;;;11.90;97.70;;;;;;5031484;28;20037;-54
2023/11/03 00:38:32;;;;;;;16.90;4.63;;;11.90;97.70;;;;;;5065899;28;20044;-53
2023/11/03 00:40:58;;;;;;;17.02;4.20;;;11.80;97.70;;;;;;5065953;28;20030;-54
2023/11/03 00:43:24;;;;;;;17.98;3.63;;;11.80;97.80;;;;;;5054896;28;20013;-54
2023/11/03 00:45:50;;;;;;;16.63;4.75;;;11.80;97.80;;;;;;5067880;28;20028;-54
2023/11/03 00:48:15;;;;;;;22.55;4.40;;;11.80;97.80;;;;;;5085959;28;20038;-58
2023/11/03 00:50:41;;;;;;;22.08;4.43;;;11.80;97.80;;;;;;5067940;28;20037;-58
2023/11/03 00:53:06;;;;;;;23.13;4.22;;;11.80;97.80;;;;;;5067198;28;20040;-58
2023/11/03 00:55:32;;;;;;;16.23;4.40;;;11.80;97.70;;;;;;5067910;28;20040;-58
2023/11/03 00:57:59;;;;;;;17.25;3.95;;;11.80;97.70;;;;;;5067876;28;20332;-58
2023/11/03 01:00:25;;;;;;;16.98;3.83;;;11.80;97.70;;;;;;5068040;28;20031;-58
2023/11/03 01:02:51;;;;;;;27.83;4.78;;;11.80;97.70;;;;;;5049957;28;20025;-58
2023/11/03 01:05:21;;;;;;;21.10;3.83;;;11.80;97.60;;;;;;5065826;28;20043;-58
2023/11/03 01:07:47;;;;;;;16.05;3.17;;;11.70;97.60;;;;;;5048601;28;20029;-58
2023/11/03 01:10:16;;;;;;;16.65;4.05;;;11.70;97.70;;;;;;5034543;28;20104;-58
2023/11/03 01:12:45;;;;;;;20.98;4.22;;;11.70;97.70;;;;;;5085770;28;20039;-58
2023/11/03 01:15:12;;;;;;;17.38;3.88;;;11.80;97.80;;;;;;5085498;28;20039;-58
2023/11/03 01:17:39;;;;;;;21.58;4.38;;;11.70;97.80;;;;;;5067962;28;20024;-58
2023/11/03 01:20:12;;;;;;;16.58;3.70;;;11.70;97.90;;;;;;5060496;28;20037;-58
2023/11/03 01:22:38;;;;;;;12.30;3.33;;;11.70;97.90;;;;;;5052392;28;20029;-58
2023/11/03 01:25:05;;;;;;;18.17;3.47;;;11.70;97.90;;;;;;5035096;28;20025;-58
2023/11/03 01:27:31;;;;;;;13.43;3.22;;;11.70;97.90;;;;;;5051431;28;20029;-58
2023/11/03 01:29:57;;;;;;;12.85;3.35;;;11.60;97.90;;;;;;5051141;28;20078;-58
2023/11/03 01:32:22;;;;;;;18.48;4.00;;;11.70;97.90;;;;;;5051285;28;20031;-58
2023/11/03 01:34:48;;;;;;;11.77;2.85;;;11.70;97.90;;;;;;5051239;28;20035;-58
2023/11/03 01:37:13;;;;;;;18.63;3.53;;;11.70;97.90;;;;;;5052656;28;20032;-58
2023/11/03 01:39:39;;;;;;;10.23;3.53;;;11.60;97.90;;;;;;5071163;28;20024;-58
2023/11/03 01:42:05;;;;;;;11.70;2.90;;;11.60;97.90;;;;;;5054557;28;20050;-58
2023/11/03 01:44:33;;;;;;;9.80;2.85;;;11.60;98.00;;;;;;5070317;28;20032;-58
2023/11/03 01:46:59;;;;;;;11.50;3.17;;;11.60;98.00;;;;;;5051704;28;20036;-57
2023/11/03 01:49:24;;;;;;;10.75;2.72;;;11.60;98.00;;;;;;5051047;28;20025;-58
2023/11/03 01:51:50;;;;;;;10.52;3.00;;;11.60;98.00;;;;;;5051606;28;20075;-58
2023/11/03 01:54:15;;;;;;;15.10;3.47;;;11.60;97.90;;;;;;5051022;28;20036;-58
2023/11/03 01:56:41;;;;;;;13.43;3.05;;;11.60;97.90;;;;;;5050339;28;20029;-57
2023/11/03 01:59:07;;;;;;;7.60;2.83;;;11.60;97.90;;;;;;5068628;28;20029;-58
2023/11/03 02:01:34;;;;;;;12.80;3.08;;;11.50;97.90;;;;;;5051354;28;20017;-58
2023/11/03 02:04:00;;;;;;;9.38;2.72;;;11.60;97.90;;;;;;5050937;28;20385;-58
2023/11/03 02:06:26;;;;;;;10.50;2.70;;;11.60;98.00;;;;;;5050639;28;20116;-57
2023/11/03 02:08:51;;;;;;;10.02;3.17;;;11.60;98.00;;;;;;5068742;28;20354;-58
2023/11/03 02:11:25;;;;;;;16.45;2.78;;;11.60;97.90;;;;;;5048096;28;20056;-58
2023/11/03 02:13:51;;;;;;;9.65;2.30;;;11.60;98.00;;;;;;5088570;28;20028;-58
2023/11/03 02:16:16;;;;;;;12.93;2.20;;;11.50;98.00;;;;;;5070404;28;20029;-58
2023/11/03 02:18:42;;;;;;;12.02;2.78;;;11.50;98.20;;;;;;5069810;28;20028;-58
2023/11/03 02:21:07;;;;;;;7.88;2.30;;;11.50;97.90;;;;;;5070350;28;20381;-58
2023/11/03 02:23:33;;;;;;;6.47;2.22;;;11.50;98.00;;;;;;5088308;28;20021;-58
2023/11/03 02:25:59;;;;;;;6.72;2.33;;;11.50;97.90;;;;;;5088243;28;20111;-58
2023/11/03 02:28:25;;;;;;;11.00;2.22;;;11.50;97.90;;;;;;5064031;28;20057;-58
2023/11/03 02:30:51;;;;;;;5.60;2.08;;;11.50;97.90;;;;;;5067762;28;20509;-58
2023/11/03 02:33:16;;;;;;;6.18;2.45;;;11.50;97.90;;;;;;5068169;28;20029;-57
2023/11/03 02:35:42;;;;;;;6.00;2.40;;;11.50;97.90;;;;;;5050268;28;20029;-58
2023/11/03 02:38:08;;;;;;;8.07;2.47;;;11.50;97.90;;;;;;5060972;28;20052;-58
2023/11/03 02:40:35;;;;;;;8.02;2.88;;;11.50;97.90;;;;;;5069946;28;20480;-58
2023/11/03 02:43:00;;;;;;;7.47;2.58;;;11.40;97.90;;;;;;5070140;28;20028;-58
2023/11/03 02:45:26;;;;;;;8.38;2.53;;;11.50;97.90;;;;;;5070100;28;20048;-58
2023/11/03 02:47:52;;;;;;;8.55;2.63;;;11.50;97.90;;;;;;5053116;28;20037;-57
2023/11/03 02:50:17;;;;;;;9.32;2.78;;;11.40;97.90;;;;;;5067770;28;20029;-58
2023/11/03 02:52:43;;;;;;;12.18;3.17;;;11.40;97.90;;;;;;5067626;28;20033;-58
2023/11/03 02:55:08;;;;;;;6.72;2.75;;;11.40;97.90;;;;;;5067857;28;20068;-57
2023/11/03 02:57:34;;;;;;;7.60;3.30;;;11.40;97.90;;;;;;5049766;28;20024;-57
2023/11/03 02:59:59;;;;;;;7.90;3.30;;;11.40;97.90;;;;;;5049626;28;20049;-58
2023/11/03 03:02:25;;;;;;;6.80;3.25;;;11.40;97.90;;;;;;5067537;28;20029;-57
2023/11/03 03:04:50;;;;;;;8.05;2.83;;;11.40;97.80;;;;;;5050082;28;20021;-58
2023/11/03 03:07:17;;;;;;;8.55;3.13;;;11.40;97.80;;;;;;5049677;28;20021;-57
2023/11/03 03:09:43;;;;;;;6.05;2.92;;;11.50;97.90;;;;;;5049824;28;20021;-58
2023/11/03 03:12:08;;;;;;;6.22;3.22;;;11.40;97.80;;;;;;5049493;28;20087;-57
2023/11/03 03:14:34;;;;;;;10.85;3.15;;;11.40;97.70;;;;;;5061673;28;20085;-57
2023/11/03 03:17:00;;;;;;;10.40;3.65;;;11.40;97.70;;;;;;5069333;28;20021;-57
2023/11/03 03:19:25;;;;;;;7.72;3.58;;;11.40;97.70;;;;;;5069203;28;20036;-57
2023/11/03 03:21:51;;;;;;;6.97;3.55;;;11.40;97.70;;;;;;5086929;28;20036;-58
2023/11/03 03:24:16;;;;;;;7.07;3.72;;;11.40;97.60;;;;;;5068490;28;20039;-58
2023/11/03 03:26:42;;;;;;;11.40;3.65;;;11.40;97.60;;;;;;5087019;28;20029;-58
2023/11/03 03:29:08;;;;;;;9.15;4.05;;;11.40;97.60;;;;;;5087302;28;20033;-57
2023/11/03 03:31:33;;;;;;;12.32;3.70;;;11.40;97.50;;;;;;5065713;28;20033;-58
2023/11/03 03:33:59;;;;;;;12.95;3.53;;;11.30;97.50;;;;;;5080477;28;20119;-57
2023/11/03 03:36:24;;;;;;;9.38;4.05;;;11.30;97.50;;;;;;5106570;28;20369;-58
2023/11/03 03:38:50;;;;;;;9.15;3.20;;;11.40;97.50;;;;;;5088357;28;20031;-57
2023/11/03 03:41:16;;;;;;;7.85;3.40;;;11.40;97.50;;;;;;5070997;28;20028;-58
2023/11/03 03:43:41;;;;;;;7.05;3.47;;;11.30;97.40;;;;;;5106197;28;20028;-58
2023/11/03 03:46:07;;;;;;;9.55;3.40;;;11.40;97.40;;;;;;5104831;28;20031;-58
2023/11/03 03:48:32;;;;;;;6.05;3.08;;;11.40;97.30;;;;;;5088998;28;20031;-58
2023/11/03 03:50:58;;;;;;;7.15;2.97;;;11.40;97.30;;;;;;5089442;28;20048;-57
2023/11/03 03:53:23;;;;;;;7.55;3.50;;;11.30;97.20;;;;;;5107494;28;20035;-58
2023/11/03 03:55:49;;;;;;;6.43;3.47;;;11.30;97.20;;;;;;5107001;28;20425;-58
2023/11/03 03:58:14;;;;;;;6.78;3.80;;;11.30;97.10;;;;;;5106930;28;20414;-58
2023/11/03 04:00:40;;;;;;;5.18;3.38;;;11.30;97.10;;;;;;5106945;28;20051;-58
2023/11/03 04:03:05;;;;;;;11.65;3.90;;;11.30;97.10;;;;;;5106628;28;20039;-58
2023/11/03 04:05:31;;;;;;;7.10;3.65;;;11.30;97.10;;;;;;5106782;28;20032;-59
2023/11/03 04:07:57;;;;;;;8.25;3.85;;;11.30;97.10;;;;;;5088598;28;20438;-58
2023/11/03 04:10:22;;;;;;;7.85;3.10;;;11.30;97.10;;;;;;5071915;28;20051;-58
2023/11/03 04:12:48;;;;;;;8.90;4.10;;;11.30;97.10;;;;;;5106587;28;20066;-58
2023/11/03 04:15:13;;;;;;;9.98;2.65;;;11.30;97.10;;;;;;5088458;28;20028;-58
2023/11/03 04:17:39;;;;;;;5.65;3.13;;;11.30;97.00;;;;;;5088433;28;20502;-58
2023/11/03 04:20:05;;;;;;;6.90;2.90;;;11.30;97.00;;;;;;5088455;28;20111;-58
2023/11/03 04:22:30;;;;;;;5.80;3.10;;;11.20;97.10;;;;;;5087991;28;20032;-58
2023/11/03 04:24:56;;;;;;;5.07;3.55;;;11.30;97.20;;;;;;5088417;28;20063;-59
2023/11/03 04:27:21;;;;;;;5.07;2.55;;;11.30;97.30;;;;;;5088187;28;20082;-57
2023/11/03 04:29:47;;;;;;;8.23;3.40;;;11.30;97.40;;;;;;5088396;28;20364;-59
2023/11/03 04:32:12;;;;;;;6.55;3.50;;;11.20;97.40;;;;;;5106570;28;20063;-59
2023/11/03 04:34:38;;;;;;;9.15;3.60;;;11.30;97.50;;;;;;5071710;28;20050;-58
2023/11/03 04:37:04;;;;;;;9.70;3.17;;;11.20;97.60;;;;;;5088293;28;20118;-59
2023/11/03 04:39:29;;;;;;;8.40;3.03;;;11.30;97.60;;;;;;5104984;28;20024;-58
2023/11/03 04:41:55;;;;;;;7.47;3.20;;;11.20;97.70;;;;;;5071520;28;20036;-59
2023/11/03 04:44:20;;;;;;;8.68;3.40;;;11.20;97.70;;;;;;5106374;28;20085;-58
2023/11/03 04:46:46;;;;;;;10.57;3.10;;;11.20;97.70;;;;;;5088261;28;20504;-58
2023/11/03 04:49:12;;;;;;;4.05;2.90;;;11.30;97.70;;;;;;5106281;28;20076;-59
2023/11/03 04:51:38;;;;;;;8.52;3.08;;;11.30;97.70;;;;;;5088310;28;20043;-59
2023/11/03 04:54:04;;;;;;;6.47;2.70;;;11.30;97.70;;;;;;5091552;28;20028;-59
2023/11/03 04:56:29;;;;;;;7.50;2.80;;;11.30;97.70;;;;;;5110595;28;20033;-59
2023/11/03 04:58:55;;;;;;;6.00;3.25;;;11.30;97.70;;;;;;5091972;28;20026;-59
2023/11/03 05:01:20;;;;;;;5.65;3.03;;;11.20;97.70;;;;;;5110161;28;20036;-59
2023/11/03 05:03:46;;;;;;;6.57;3.53;;;11.30;97.70;;;;;;5110213;28;20085;-59
2023/11/03 05:06:12;;;;;;;6.13;3.75;;;11.30;97.70;;;;;;5075337;28;20495;-58
2023/11/03 05:08:37;;;;;;;7.50;3.45;;;11.30;97.60;;;;;;5058627;28;20027;-59
2023/11/03 05:11:03;;;;;;;6.40;3.20;;;11.20;97.50;;;;;;5075044;28;20032;-59
2023/11/03 05:13:29;;;;;;;8.35;3.70;;;11.30;97.50;;;;;;5091695;28;20056;-58
2023/11/03 05:15:54;;;;;;;8.05;3.50;;;11.20;97.40;;;;;;5109950;28;20040;-59
2023/11/03 05:18:20;;;;;;;10.13;3.72;;;11.20;97.30;;;;;;5091720;28;20029;-59
2023/11/03 05:20:45;;;;;;;13.23;3.42;;;11.20;97.30;;;;;;5108403;28;20032;-59
2023/11/03 05:23:11;;;;;;;8.38;3.65;;;11.30;97.30;;;;;;5109884;28;20059;-58
2023/11/03 05:25:36;;;;;;;12.10;3.55;;;11.30;97.30;;;;;;5109871;28;20081;-58
2023/11/03 05:28:03;;;;;;;11.13;3.70;;;11.20;97.30;;;;;;5109728;28;20024;-58
2023/11/03 05:30:29;;;;;;;13.98;5.03;;;11.20;97.20;;;;;;5054034;28;20072;-58
2023/11/03 05:32:55;;;;;;;16.15;4.53;;;11.20;97.20;;;;;;5089189;28;20053;-58
2023/11/03 05:35:21;;;;;;;31.17;5.63;;;11.20;97.20;;;;;;5070959;28;20036;-58
2023/11/03 05:37:47;;;;;;;31.52;5.78;;;11.20;97.10;;;;;;5071154;28;20028;-58
2023/11/03 05:40:14;;;;;;;26.08;6.20;;;11.20;97.00;;;;;;5089113;28;20574;-58
2023/11/03 05:42:39;;;;;;;34.90;6.57;;;11.20;97.00;;;;;;5071096;28;20017;-58
2023/11/03 05:45:06;;;;;;;40.47;6.82;;;11.10;96.90;;;;;;5089068;28;20087;-58
2023/11/03 05:47:31;;;;;;;36.78;6.50;;;11.20;97.00;;;;;;5054585;28;20032;-58
2023/11/03 05:49:57;;;;;;;25.27;5.60;;;11.20;96.90;;;;;;5071052;28;20029;-58
2023/11/03 05:52:23;;;;;;;47.47;6.07;;;11.10;96.90;;;;;;5053927;28;20082;-58
2023/11/03 05:54:48;;;;;;;235.82;26.10;;;11.20;96.80;;;;;;5054506;28;20052;-58
2023/11/03 05:57:14;;;;;;;113.60;12.60;;;11.20;96.70;;;;;;5070766;28;20119;-58
2023/11/03 05:59:39;;;;;;;73.20;10.70;;;11.20;96.70;;;;;;5070667;28;20074;-58
2023/11/03 06:02:05;;;;;;;71.50;9.85;;;11.20;96.70;;;;;;5088579;28;20075;-58
2023/11/03 06:04:30;;;;;;;55.83;10.00;;;11.10;96.70;;;;;;5070147;28;20423;-58
2023/11/03 06:06:56;;;;;;;64.88;10.00;;;11.20;96.70;;;;;;5070704;28;20084;-58
2023/11/03 06:09:22;;;;;;;56.72;8.27;;;11.10;96.70;;;;;;5070645;28;20484;-59
2023/11/03 06:11:50;;;;;;;57.78;7.65;;;11.10;96.70;;;;;;5070940;28;20035;-58
2023/11/03 06:14:16;;;;;;;46.20;6.85;;;11.10;96.70;;;;;;5088550;28;20026;-58
2023/11/03 06:16:41;;;;;;;50.97;7.47;;;11.10;96.70;;;;;;5070310;28;20058;-58
2023/11/03 06:19:07;;;;;;;47.78;7.45;;;11.10;96.70;;;;;;5070778;28;20032;-58
2023/11/03 06:21:32;;;;;;;54.75;7.60;;;11.10;96.70;;;;;;5088095;28;20397;-58
2023/11/03 06:23:58;;;;;;;44.42;7.80;;;11.10;96.70;;;;;;5088401;28;20040;-58
2023/11/03 06:26:23;;;;;;;52.15;7.10;;;11.10;96.60;;;;;;5054711;28;20020;-58
2023/11/03 06:28:49;;;;;;;41.35;7.32;;;11.10;96.70;;;;;;5087868;28;20037;-58
2023/11/03 06:31:15;;;;;;;41.58;7.72;;;11.10;96.60;;;;;;5068696;28;20450;-58
2023/11/03 06:33:41;;;;;;;32.60;6.97;;;11.00;96.60;;;;;;5070199;28;20079;-58
2023/11/03 06:36:07;;;;;;;35.42;6.78;;;11.10;96.90;;;;;;5087598;28;20206;-58
2023/11/03 06:38:33;;;;;;;41.15;6.93;;;11.00;96.60;;;;;;5070020;28;20031;-58
2023/11/03 06:40:58;;;;;;;31.73;6.78;;;11.00;96.60;;;;;;5070085;28;20021;-58
2023/11/03 06:43:24;;;;;;;32.75;6.82;;;11.00;96.60;;;;;;5069839;28;20109;-58
2023/11/03 06:45:50;;;;;;;34.10;7.38;;;11.00;96.50;;;;;;5070298;28;20036;-58
2023/11/03 06:48:15;;;;;;;33.67;6.47;;;11.10;96.50;;;;;;5069931;28;20025;-58
2023/11/03 06:50:41;;;;;;;28.85;6.47;;;11.10;96.50;;;;;;5069901;28;20045;-58
2023/11/03 06:53:06;;;;;;;34.88;6.85;;;11.00;96.40;;;;;;5069645;28;20034;-58
2023/11/03 06:55:32;;;;;;;35.33;6.53;;;11.10;96.50;;;;;;5069756;28;20078;-58
2023/11/03 06:57:58;;;;;;;38.03;6.30;;;11.00;96.70;;;;;;5072024;28;20092;-58
2023/11/03 07:00:25;;;;;;;29.38;5.57;;;11.00;96.40;;;;;;5086576;28;20031;-58
2023/11/03 07:02:52;;;;;;;28.98;5.70;;;11.10;96.40;;;;;;5088460;28;20012;-58
2023/11/03 07:05:21;;;;;;;39.08;6.43;;;11.00;96.40;;;;;;5067410;28;20096;-58
2023/11/03 07:07:46;;;;;;;34.78;5.93;;;11.10;96.40;;;;;;5069767;28;20032;-58
2023/11/03 07:10:14;;;;;;;28.40;5.18;;;11.00;96.40;;;;;;5099816;28;20114;-58
2023/11/03 07:12:40;;;;;;;26.80;5.53;;;11.00;96.40;;;;;;5073471;28;20025;-58
2023/11/03 07:15:06;;;;;;;25.95;5.45;;;11.00;96.30;;;;;;5082399;28;20036;-58
2023/11/03 07:17:32;;;;;;;34.15;5.88;;;11.00;96.40;;;;;;5091878;28;20031;-58
2023/11/03 07:19:59;;;;;;;34.97;4.95;;;11.00;96.40;;;;;;5073641;28;20024;-58
2023/11/03 07:22:25;;;;;;;23.35;4.93;;;11.00;96.30;;;;;;5105559;28;20024;-58
2023/11/03 07:24:53;;;;;;;21.20;4.53;;;11.00;96.30;;;;;;5089169;28;20054;-58
2023/11/03 07:27:19;;;;;;;24.27;5.40;;;10.90;96.30;;;;;;5100376;28;20027;-58
2023/11/03 07:29:44;;;;;;;21.23;5.05;;;11.00;96.30;;;;;;5067685;28;20032;-58
2023/11/03 07:32:10;;;;;;;23.88;5.20;;;11.00;96.30;;;;;;5099254;28;20029;-58
2023/11/03 07:34:35;;;;;;;33.05;5.25;;;11.00;96.40;;;;;;5079651;28;20031;-57
2023/11/03 07:37:01;;;;;;;36.97;5.78;;;11.00;96.40;;;;;;5086195;28;20064;-58
2023/11/03 07:39:26;;;;;;;26.83;5.88;;;11.00;96.40;;;;;;5051647;28;20388;-58
2023/11/03 07:41:53;;;;;;;37.00;5.90;;;11.00;96.30;;;;;;5061568;28;20025;-58
2023/11/03 07:44:21;;;;;;;29.98;6.32;;;11.00;96.30;;;;;;5085397;28;20028;-58
2023/11/03 07:46:47;;;;;;;45.50;5.93;;;11.00;96.20;;;;;;5068154;28;20112;-58
2023/11/03 07:49:13;;;;;;;43.08;6.68;;;11.00;96.30;;;;;;5066768;28;20391;-58
2023/11/03 07:51:38;;;;;;;47.33;6.93;;;11.10;96.30;;;;;;5086456;28;20048;-58
2023/11/03 07:54:05;;;;;;;48.85;7.93;;;11.10;96.30;;;;;;5059545;28;20025;-58
2023/11/03 07:56:31;;;;;;;57.88;9.00;;;11.00;96.40;;;;;;5065340;28;20114;-58
2023/11/03 07:58:56;;;;;;;49.35;8.27;;;11.00;96.50;;;;;;5067593;28;20024;-57
2023/11/03 08:01:22;;;;;;;53.25;7.28;;;11.10;96.40;;;;;;5066294;28;20029;-58
2023/11/03 08:03:47;;;;;;;81.45;10.80;;;11.10;96.30;;;;;;5074642;28;20028;-58
2023/11/03 08:06:13;;;;;;;48.08;5.80;;;11.10;96.30;;;;;;5068188;28;20028;-58
2023/11/03 08:08:39;;;;;;;40.97;5.90;;;11.10;96.20;;;;;;5097459;28;20043;-58
2023/11/03 08:11:06;;;;;;;42.45;7.45;;;11.10;96.10;;;;;;5094360;28;20035;-58
2023/11/03 08:13:32;;;;;;;47.03;6.57;;;11.10;96.20;;;;;;5049331;28;20390;-58
2023/11/03 08:15:57;;;;;;;43.10;6.78;;;11.10;95.90;;;;;;5062995;28;20035;-58
2023/11/03 08:18:23;;;;;;;39.03;5.82;;;11.10;95.90;;;;;;5082357;28;20051;-58
2023/11/03 08:20:49;;;;;;;49.05;7.05;;;11.10;95.90;;;;;;5074175;28;20039;-58
2023/11/03 08:23:15;;;;;;;68.07;8.35;;;11.10;95.90;;;;;;5087545;28;20391;-58
2023/11/03 08:25:42;;;;;;;70.15;8.32;;;11.10;95.90;;;;;;5065819;28;20044;-58
2023/11/03 08:28:09;;;;;;;46.55;7.68;;;11.10;95.80;;;;;;5067209;28;20029;-58
2023/11/03 08:30:35;;;;;;;62.05;7.85;;;11.10;95.90;;;;;;5073227;28;20034;-58
2023/11/03 08:33:01;;;;;;;62.35;8.48;;;11.10;95.90;;;;;;5092368;28;20073;-58
2023/11/03 08:35:27;;;;;;;76.45;10.05;;;11.10;95.80;;;;;;5073565;28;20036;-58
2023/11/03 08:37:53;;;;;;;71.93;10.32;;;11.10;95.80;;;;;;5082952;28;20028;-58
2023/11/03 08:40:20;;;;;;;77.45;9.65;;;11.20;96.00;;;;;;5063004;28;20029;-58
2023/11/03 08:42:46;;;;;;;67.22;8.95;;;11.20;95.90;;;;;;5078850;28;20029;-58
2023/11/03 08:45:12;;;;;;;75.68;10.10;;;11.10;95.80;;;;;;5063415;28;20028;-58
2023/11/03 08:47:41;;;;;;;88.20;11.57;;;11.20;95.90;;;;;;5065692;28;20047;-58
2023/11/03 08:50:07;;;;;;;99.05;12.85;;;11.20;96.00;;;;;;5063348;28;20041;-58
2023/11/03 08:52:33;;;;;;;103.05;13.65;;;11.20;96.10;;;;;;5065327;28;20047;-58
2023/11/03 08:54:58;;;;;;;96.90;12.82;;;11.30;96.00;;;;;;5077235;28;20033;-58
2023/11/03 08:57:24;;;;;;;96.07;12.55;;;11.20;96.00;;;;;;5073856;28;20040;-58
2023/11/03 08:59:51;;;;;;;101.50;13.13;;;11.30;96.00;;;;;;5079988;28;20050;-58
2023/11/03 09:02:16;;;;;;;81.38;10.35;;;11.30;96.10;;;;;;5072306;28;20036;-58
2023/11/03 09:04:42;;;;;;;81.22;10.52;;;11.20;95.90;;;;;;5085644;28;20115;-58
2023/11/03 09:07:09;;;;;;;91.07;11.80;;;11.30;95.70;;;;;;5071749;28;20055;-58
2023/11/03 09:09:35;;;;;;;102.75;12.73;;;11.30;95.70;;;;;;5063905;28;20104;-58
2023/11/03 09:12:00;;;;;;;81.57;11.63;;;11.30;95.70;;;;;;5039075;28;20096;-58
2023/11/03 09:14:26;;;;;;;105.53;14.02;;;11.30;95.80;;;;;;5064578;28;20088;-57
2023/11/03 09:16:54;;;;;;;117.30;15.65;;;11.30;95.90;;;;;;5075555;28;20401;-57
2023/11/03 09:19:20;;;;;;;145.65;17.25;;;11.30;95.90;;;;;;5071866;28;20468;-57
2023/11/03 09:21:46;;;;;;;112.80;16.00;;;11.40;96.00;;;;;;5075274;28;20040;-58
2023/11/03 09:24:11;;;;;;;171.55;18.48;;;11.40;96.00;;;;;;5059309;28;20025;-58
2023/11/03 09:26:37;;;;;;;161.63;17.67;;;11.40;96.30;;;;;;5082056;28;20059;-58
2023/11/03 09:29:02;;;;;;;162.75;20.13;;;11.50;96.00;;;;;;5056219;28;20081;-58
2023/11/03 09:31:28;;;;;;;160.65;18.85;;;11.50;96.00;;;;;;5074062;28;20045;-58
2023/11/03 09:33:55;;;;;;;163.65;17.85;;;11.50;96.00;;;;;;5070414;28;20028;-57
2023/11/03 09:36:21;;;;;;;97.55;13.50;;;11.50;96.00;;;;;;5057014;28;20041;-57
2023/11/03 09:38:46;;;;;;;161.63;19.40;;;11.50;95.80;;;;;;5047576;28;20031;-58
2023/11/03 09:41:13;;;;;;;129.65;15.82;;;11.50;95.60;;;;;;5066604;28;20434;-58
2023/11/03 09:43:40;;;;;;;124.57;16.75;;;11.50;95.70;;;;;;5059895;28;20044;-58
2023/11/03 09:46:05;;;;;;;166.38;19.85;;;11.50;95.70;;;;;;5062577;28;20029;-58
2023/11/03 09:48:31;;;;;;;178.82;20.35;;;11.50;95.70;;;;;;5068682;28;20475;-58
2023/11/03 09:50:56;;;;;;;192.52;20.98;;;11.60;95.70;;;;;;5058737;28;20473;-58
2023/11/03 09:53:22;;;;;;;171.00;21.40;;;11.60;95.60;;;;;;5065381;28;20576;-58
2023/11/03 09:55:48;;;;;;;147.75;20.73;;;11.60;95.60;;;;;;5071700;28;20055;-57
2023/11/03 09:58:15;;;;;;;161.13;18.05;;;11.60;95.50;;;;;;5087076;28;20021;-58
2023/11/03 10:00:41;;;;;;;195.60;20.38;;;11.60;95.50;;;;;;5053762;28;20088;-57
2023/11/03 10:03:08;;;;;;;142.80;16.33;;;11.60;95.40;;;;;;5043812;28;20021;-57
2023/11/03 10:05:36;;;;;;;122.50;15.40;;;11.70;95.40;;;;;;5056406;28;20055;-57
2023/11/03 10:08:07;;;;;;;102.53;15.30;;;11.80;95.40;;;;;;5059679;28;20071;-57
2023/11/03 10:10:34;;;;;;;123.25;16.13;;;11.70;95.20;;;;;;5060887;28;20085;-57
2023/11/03 10:13:01;;;;;;;118.13;16.70;;;11.80;95.10;;;;;;5051684;28;20025;-57
2023/11/03 10:15:27;;;;;;;125.38;17.08;;;11.80;95.10;;;;;;5076640;28;20045;-58
2023/11/03 10:17:56;;;;;;;124.03;15.77;;;11.70;95.10;;;;;;5058621;28;20028;-57
2023/11/03 10:20:22;;;;;;;139.07;16.45;;;11.70;95.10;;;;;;5068927;28;20028;-57
2023/11/03 10:22:48;;;;;;;142.70;17.15;;;11.80;95.10;;;;;;5077292;28;20047;-58
2023/11/03 10:25:16;;;;;;;110.82;16.73;;;11.80;95.00;;;;;;5075326;28;20040;-58
2023/11/03 10:27:43;;;;;;;159.65;21.10;;;11.80;95.00;;;;;;5055328;28;20021;-57
2023/11/03 10:30:09;;;;;;;204.15;24.92;;;11.80;94.90;;;;;;5062230;28;20055;-58
2023/11/03 10:32:35;;;;;;;171.80;22.15;;;11.80;94.90;;;;;;5076167;28;20032;-57
2023/11/03 10:35:05;;;;;;;162.20;21.00;;;11.80;95.00;;;;;;5075921;28;20037;-58
2023/11/03 10:37:34;;;;;;;155.90;21.17;;;11.90;95.00;;;;;;5049401;28;20044;-58
2023/11/03 10:40:00;;;;;;;176.05;18.83;;;11.90;95.00;;;;;;5069434;28;20032;-58
2023/11/03 10:42:25;;;;;;;107.38;17.20;;;11.90;94.90;;;;;;5069885;28;20027;-58
2023/11/03 10:45:00;;;;;;;128.18;17.48;;;11.90;94.90;;;;;;5061500;28;20031;-58
2023/11/03 10:47:26;;;;;;;94.32;13.27;;;11.90;94.90;;;;;;5064223;28;20029;-58
2023/11/03 10:49:57;;;;;;;102.93;13.93;;;11.90;94.90;;;;;;5055094;28;20412;-57
2023/11/03 10:52:28;;;;;;;120.07;14.52;;;12.00;94.80;;;;;;5040733;28;20125;-58
2023/11/03 10:55:03;;;;;;;282.38;29.65;;;11.90;94.90;;;;;;5062160;28;20041;-57
2023/11/03 10:57:31;;;;;;;200.75;24.92;;;12.00;94.90;;;;;;5054428;28;20046;-57
2023/11/03 11:00:27;;;;;;;202.75;23.27;;;12.20;94.90;;;;;;5067726;28;20032;-58
2023/11/03 11:03:04;;;;;;;151.27;17.70;;;12.10;94.80;;;;;;5086380;28;20025;-57
2023/11/03 11:05:42;;;;;;;140.88;16.77;;;12.10;94.70;;;;;;5067585;28;20029;-57
2023/11/03 11:08:08;;;;;;;93.25;12.68;;;12.10;94.50;;;;;;5049105;28;20049;-57
2023/11/03 11:10:38;;;;;;;146.07;16.75;;;12.10;94.40;;;;;;5085676;28;20035;-57
2023/11/03 11:13:06;;;;;;;199.30;21.55;;;12.20;94.60;;;;;;5054106;28;20032;-57
2023/11/03 11:15:31;;;;;;;145.05;17.35;;;12.20;94.30;;;;;;5074871;28;20040;-57
2023/11/03 11:18:12;;;;;;;147.20;19.20;;;12.20;94.30;;;;;;5053581;28;20041;-58
2023/11/03 11:20:38;;;;;;;141.82;16.75;;;12.20;94.20;;;;;;5069336;28;20028;-57
2023/11/03 11:23:04;;;;;;;156.43;18.55;;;12.20;94.30;;;;;;5037647;28;20056;-58
2023/11/03 11:25:33;;;;;;;132.73;15.30;;;12.20;94.30;;;;;;5064632;28;20032;-57
2023/11/03 11:27:59;;;;;;;128.32;15.90;;;12.20;94.10;;;;;;5060151;28;20033;-58
2023/11/03 11:30:24;;;;;;;113.90;14.30;;;12.20;94.10;;;;;;5080192;28;20044;-58
2023/11/03 11:32:54;;;;;;;133.90;14.88;;;12.20;94.10;;;;;;5065613;28;20028;-57
2023/11/03 11:35:20;;;;;;;133.50;15.90;;;12.30;94.00;;;;;;5071863;28;20036;-57
2023/11/03 11:37:47;;;;;;;137.20;16.70;;;12.30;93.90;;;;;;5035369;28;20108;-58
2023/11/03 11:40:12;;;;;;;125.80;17.55;;;12.30;93.80;;;;;;5063530;28;20048;-58
2023/11/03 11:42:42;;;;;;;150.18;16.83;;;12.30;93.80;;;;;;5049951;28;20028;-58
2023/11/03 11:45:11;;;;;;;136.93;15.70;;;12.30;93.70;;;;;;5078488;28;20032;-58
2023/11/03 11:47:42;;;;;;;118.40;15.68;;;12.30;93.70;;;;;;5063168;28;20017;-58
2023/11/03 11:50:09;;;;;;;104.57;14.40;;;12.40;93.60;;;;;;5060808;28;20252;-58
2023/11/03 11:52:36;;;;;;;112.38;15.80;;;12.40;93.40;;;;;;5048625;28;20017;-58
2023/11/03 11:55:01;;;;;;;137.93;18.63;;;12.40;93.30;;;;;;5050527;28;20060;-58
2023/11/03 11:57:27;;;;;;;169.32;19.38;;;12.40;93.30;;;;;;5067977;28;20033;-57
2023/11/03 11:59:53;;;;;;;196.65;21.77;;;12.40;93.20;;;;;;5067366;28;20031;-58
2023/11/03 12:02:19;;;;;;;152.40;18.83;;;12.60;93.20;;;;;;5062445;28;20024;-58
2023/11/03 12:04:53;;;;;;;77.75;12.55;;;12.40;93.00;;;;;;5073547;28;20032;-58
2023/11/03 12:07:26;;;;;;;86.72;12.25;;;12.40;92.80;;;;;;5079575;28;20173;-58
2023/11/03 12:09:53;;;;;;;84.78;11.98;;;12.40;92.60;;;;;;5052330;28;20027;-57
2023/11/03 12:12:22;;;;;;;90.13;11.65;;;12.50;92.60;;;;;;5042344;28;20024;-58
2023/11/03 12:14:47;;;;;;;114.95;15.27;;;12.50;92.40;;;;;;5072207;28;20428;-58
2023/11/03 12:17:19;;;;;;;74.15;10.40;;;12.60;92.40;;;;;;5048467;28;20056;-58
2023/11/03 12:19:46;;;;;;;74.68;9.95;;;12.50;92.30;;;;;;5073358;28;20107;-58
2023/11/03 12:22:22;;;;;;;90.35;12.73;;;12.50;92.30;;;;;;5052761;28;20060;-58
2023/11/03 12:24:53;;;;;;;70.05;10.57;;;12.50;92.20;;;;;;5074009;28;20059;-58
2023/11/03 12:27:19;;;;;;;72.68;9.02;;;12.60;92.20;;;;;;5096911;28;20372;-58
2023/11/03 12:29:45;;;;;;;71.80;9.60;;;12.60;92.10;;;;;;5072646;28;20036;-58